sensor_id;sensor_type;location;lat;lon;timestamp;P1;durP1;ratioP1;P2;durP2;ratioP2
3341;SDS011;1684;50.748;6.154;2022-10-03T00:03:42;9.90;;;5.10;;
3341;SDS011;1684;50.748;6.154;2022-10-03T00:06:14;10.47;;;5.60;;
3341;SDS011;1684;50.748;6.154;2022-10-03T00:08:55;8.93;;;6.60;;
3341;SDS011;1684;50.748;6.154;2022-10-03T00:11:35;10.63;;;6.00;;
3341;SDS011;1684;50.748;6.154;2022-10-03T00:14:09;14.80;;;7.43;;
3341;SDS011;1684;50.748;6.154;2022-10-03T00:16:41;14.33;;;6.73;;
3341;SDS011;1684;50.748;6.154;2022-10-03T00:19:15;13.77;;;6.97;;
3341;SDS011;1684;50.748;6.154;2022-10-03T00:21:49;14.93;;;6.27;;
3341;SDS011;1684;50.748;6.154;2022-10-03T00:24:22;20.10;;;8.73;;
3341;SDS011;1684;50.748;6.154;2022-10-03T00:26:54;17.67;;;9.57;;
3341;SDS011;1684;50.748;6.154;2022-10-03T00:29:41;13.83;;;8.77;;
3341;SDS011;1684;50.748;6.154;2022-10-03T00:32:18;16.90;;;7.83;;
3341;SDS011;1684;50.748;6.154;2022-10-03T00:34:55;17.40;;;7.90;;
3341;SDS011;1684;50.748;6.154;2022-10-03T00:37:29;14.27;;;8.40;;
3341;SDS011;1684;50.748;6.154;2022-10-03T00:40:03;17.10;;;8.97;;
3341;SDS011;1684;50.748;6.154;2022-10-03T00:48:11;15.60;;;8.17;;
3341;SDS011;1684;50.748;6.154;2022-10-03T00:50:51;14.17;;;8.70;;
3341;SDS011;1684;50.748;6.154;2022-10-03T00:53:43;13.07;;;8.37;;
3341;SDS011;1684;50.748;6.154;2022-10-03T00:56:19;15.33;;;9.00;;
3341;SDS011;1684;50.748;6.154;2022-10-03T00:59:02;17.67;;;8.80;;
3341;SDS011;1684;50.748;6.154;2022-10-03T01:01:34;16.70;;;8.80;;
3341;SDS011;1684;50.748;6.154;2022-10-03T01:04:12;18.43;;;8.80;;
3341;SDS011;1684;50.748;6.154;2022-10-03T01:06:42;15.00;;;8.63;;
3341;SDS011;1684;50.748;6.154;2022-10-03T01:09:15;16.43;;;7.87;;
3341;SDS011;1684;50.748;6.154;2022-10-03T01:11:48;13.40;;;7.83;;
3341;SDS011;1684;50.748;6.154;2022-10-03T01:14:22;17.30;;;9.43;;
3341;SDS011;1684;50.748;6.154;2022-10-03T01:16:56;13.33;;;9.40;;
3341;SDS011;1684;50.748;6.154;2022-10-03T01:19:39;12.10;;;9.10;;
3341;SDS011;1684;50.748;6.154;2022-10-03T01:22:19;14.30;;;9.20;;
3341;SDS011;1684;50.748;6.154;2022-10-03T01:24:53;14.50;;;7.97;;
3341;SDS011;1684;50.748;6.154;2022-10-03T01:27:29;14.23;;;9.20;;
3341;SDS011;1684;50.748;6.154;2022-10-03T01:30:00;15.50;;;8.40;;
3341;SDS011;1684;50.748;6.154;2022-10-03T01:32:48;14.20;;;8.40;;
3341;SDS011;1684;50.748;6.154;2022-10-03T01:35:21;16.27;;;8.53;;
3341;SDS011;1684;50.748;6.154;2022-10-03T01:37:53;13.03;;;8.40;;
3341;SDS011;1684;50.748;6.154;2022-10-03T01:40:26;14.73;;;9.13;;
3341;SDS011;1684;50.748;6.154;2022-10-03T01:42:57;15.53;;;9.23;;
3341;SDS011;1684;50.748;6.154;2022-10-03T01:45:30;17.03;;;10.07;;
3341;SDS011;1684;50.748;6.154;2022-10-03T01:48:03;20.10;;;10.17;;
3341;SDS011;1684;50.748;6.154;2022-10-03T01:50:34;25.17;;;11.57;;
3341;SDS011;1684;50.748;6.154;2022-10-03T01:53:05;18.93;;;10.47;;
3341;SDS011;1684;50.748;6.154;2022-10-03T01:55:39;18.80;;;11.90;;
3341;SDS011;1684;50.748;6.154;2022-10-03T01:58:11;18.03;;;10.20;;
3341;SDS011;1684;50.748;6.154;2022-10-03T02:00:46;18.80;;;10.90;;
3341;SDS011;1684;50.748;6.154;2022-10-03T02:03:19;18.80;;;10.40;;
3341;SDS011;1684;50.748;6.154;2022-10-03T02:05:52;15.97;;;10.40;;
3341;SDS011;1684;50.748;6.154;2022-10-03T02:08:24;16.80;;;10.47;;
3341;SDS011;1684;50.748;6.154;2022-10-03T02:10:57;18.90;;;12.20;;
3341;SDS011;1684;50.748;6.154;2022-10-03T02:13:29;18.67;;;10.37;;
3341;SDS011;1684;50.748;6.154;2022-10-03T02:16:06;17.00;;;9.70;;
3341;SDS011;1684;50.748;6.154;2022-10-03T02:18:37;18.07;;;9.90;;
3341;SDS011;1684;50.748;6.154;2022-10-03T02:21:11;16.93;;;10.53;;
3341;SDS011;1684;50.748;6.154;2022-10-03T02:23:42;18.53;;;10.23;;
3341;SDS011;1684;50.748;6.154;2022-10-03T02:26:23;14.33;;;9.73;;
3341;SDS011;1684;50.748;6.154;2022-10-03T02:29:02;16.50;;;10.83;;
3341;SDS011;1684;50.748;6.154;2022-10-03T02:34:43;15.17;;;9.50;;
3341;SDS011;1684;50.748;6.154;2022-10-03T02:37:18;17.33;;;9.20;;
3341;SDS011;1684;50.748;6.154;2022-10-03T02:39:59;13.40;;;8.90;;
3341;SDS011;1684;50.748;6.154;2022-10-03T02:42:37;15.27;;;9.20;;
3341;SDS011;1684;50.748;6.154;2022-10-03T02:45:27;17.00;;;10.20;;
3341;SDS011;1684;50.748;6.154;2022-10-03T02:48:10;17.97;;;10.77;;
3341;SDS011;1684;50.748;6.154;2022-10-03T02:51:05;18.70;;;10.57;;
3341;SDS011;1684;50.748;6.154;2022-10-03T02:53:46;16.93;;;9.33;;
3341;SDS011;1684;50.748;6.154;2022-10-03T02:59:14;16.13;;;10.30;;
3341;SDS011;1684;50.748;6.154;2022-10-03T03:01:58;15.87;;;9.37;;
3341;SDS011;1684;50.748;6.154;2022-10-03T03:04:39;20.13;;;10.60;;
3341;SDS011;1684;50.748;6.154;2022-10-03T03:12:51;12.40;;;9.00;;
3341;SDS011;1684;50.748;6.154;2022-10-03T03:18:20;15.07;;;8.20;;
3341;SDS011;1684;50.748;6.154;2022-10-03T03:20:53;18.00;;;10.60;;
3341;SDS011;1684;50.748;6.154;2022-10-03T03:23:28;15.80;;;8.87;;
3341;SDS011;1684;50.748;6.154;2022-10-03T03:26:05;14.40;;;9.70;;
3341;SDS011;1684;50.748;6.154;2022-10-03T03:28:42;14.03;;;9.47;;
3341;SDS011;1684;50.748;6.154;2022-10-03T03:31:11;17.30;;;9.53;;
3341;SDS011;1684;50.748;6.154;2022-10-03T03:33:49;14.13;;;8.43;;
3341;SDS011;1684;50.748;6.154;2022-10-03T03:36:23;16.43;;;9.10;;
3341;SDS011;1684;50.748;6.154;2022-10-03T03:38:55;15.63;;;9.63;;
3341;SDS011;1684;50.748;6.154;2022-10-03T03:41:33;14.40;;;9.93;;
3341;SDS011;1684;50.748;6.154;2022-10-03T03:46:59;18.57;;;10.00;;
3341;SDS011;1684;50.748;6.154;2022-10-03T03:49:32;17.30;;;9.30;;
3341;SDS011;1684;50.748;6.154;2022-10-03T03:52:12;14.33;;;8.80;;
3341;SDS011;1684;50.748;6.154;2022-10-03T03:54:48;14.53;;;10.10;;
3341;SDS011;1684;50.748;6.154;2022-10-03T03:57:26;20.33;;;9.40;;
3341;SDS011;1684;50.748;6.154;2022-10-03T04:00:04;17.40;;;11.47;;
3341;SDS011;1684;50.748;6.154;2022-10-03T04:02:38;15.97;;;10.07;;
3341;SDS011;1684;50.748;6.154;2022-10-03T04:05:12;16.00;;;9.63;;
3341;SDS011;1684;50.748;6.154;2022-10-03T04:07:50;17.23;;;9.40;;
3341;SDS011;1684;50.748;6.154;2022-10-03T04:10:25;17.90;;;10.57;;
3341;SDS011;1684;50.748;6.154;2022-10-03T04:13:00;15.90;;;8.43;;
3341;SDS011;1684;50.748;6.154;2022-10-03T04:15:34;17.03;;;9.40;;
3341;SDS011;1684;50.748;6.154;2022-10-03T04:18:24;15.23;;;9.80;;
3341;SDS011;1684;50.748;6.154;2022-10-03T04:21:18;15.43;;;8.63;;
3341;SDS011;1684;50.748;6.154;2022-10-03T04:23:55;17.83;;;9.80;;
3341;SDS011;1684;50.748;6.154;2022-10-03T04:26:31;17.90;;;10.97;;
3341;SDS011;1684;50.748;6.154;2022-10-03T04:31:52;21.70;;;10.93;;
3341;SDS011;1684;50.748;6.154;2022-10-03T04:34:33;20.20;;;11.50;;
3341;SDS011;1684;50.748;6.154;2022-10-03T04:37:10;21.53;;;9.83;;
3341;SDS011;1684;50.748;6.154;2022-10-03T04:39:43;22.23;;;9.33;;
3341;SDS011;1684;50.748;6.154;2022-10-03T04:42:13;25.43;;;10.70;;
3341;SDS011;1684;50.748;6.154;2022-10-03T04:44:50;14.10;;;8.17;;
3341;SDS011;1684;50.748;6.154;2022-10-03T04:47:25;14.07;;;9.17;;
3341;SDS011;1684;50.748;6.154;2022-10-03T04:49:57;15.27;;;9.63;;
3341;SDS011;1684;50.748;6.154;2022-10-03T04:52:29;20.93;;;9.60;;
3341;SDS011;1684;50.748;6.154;2022-10-03T04:55:05;15.40;;;9.20;;
3341;SDS011;1684;50.748;6.154;2022-10-03T04:57:35;12.33;;;8.50;;
3341;SDS011;1684;50.748;6.154;2022-10-03T05:00:13;17.00;;;9.43;;
3341;SDS011;1684;50.748;6.154;2022-10-03T05:02:50;16.17;;;9.83;;
3341;SDS011;1684;50.748;6.154;2022-10-03T05:05:25;16.10;;;10.67;;
3341;SDS011;1684;50.748;6.154;2022-10-03T05:07:57;16.83;;;9.53;;
3341;SDS011;1684;50.748;6.154;2022-10-03T05:10:32;15.87;;;9.57;;
3341;SDS011;1684;50.748;6.154;2022-10-03T05:13:04;14.77;;;9.17;;
3341;SDS011;1684;50.748;6.154;2022-10-03T05:15:39;20.00;;;9.67;;
3341;SDS011;1684;50.748;6.154;2022-10-03T05:18:11;17.87;;;9.73;;
3341;SDS011;1684;50.748;6.154;2022-10-03T05:20:46;18.37;;;10.53;;
3341;SDS011;1684;50.748;6.154;2022-10-03T05:23:23;18.80;;;10.50;;
3341;SDS011;1684;50.748;6.154;2022-10-03T05:25:53;19.97;;;11.13;;
3341;SDS011;1684;50.748;6.154;2022-10-03T05:28:47;15.93;;;9.93;;
3341;SDS011;1684;50.748;6.154;2022-10-03T05:31:33;26.00;;;11.67;;
3341;SDS011;1684;50.748;6.154;2022-10-03T05:34:09;17.60;;;11.30;;
3341;SDS011;1684;50.748;6.154;2022-10-03T05:36:44;17.30;;;9.90;;
3341;SDS011;1684;50.748;6.154;2022-10-03T05:41:54;23.30;;;12.13;;
3341;SDS011;1684;50.748;6.154;2022-10-03T05:44:44;23.90;;;13.00;;
3341;SDS011;1684;50.748;6.154;2022-10-03T05:47:19;26.63;;;11.40;;
3341;SDS011;1684;50.748;6.154;2022-10-03T05:50:24;19.43;;;11.53;;
3341;SDS011;1684;50.748;6.154;2022-10-03T05:53:03;20.57;;;11.87;;
3341;SDS011;1684;50.748;6.154;2022-10-03T05:55:41;21.10;;;11.03;;
3341;SDS011;1684;50.748;6.154;2022-10-03T05:58:17;27.50;;;12.83;;
3341;SDS011;1684;50.748;6.154;2022-10-03T06:01:10;26.33;;;14.87;;
3341;SDS011;1684;50.748;6.154;2022-10-03T06:03:48;20.13;;;11.30;;
3341;SDS011;1684;50.748;6.154;2022-10-03T06:06:24;25.07;;;12.63;;
3341;SDS011;1684;50.748;6.154;2022-10-03T06:09:14;21.97;;;11.47;;
3341;SDS011;1684;50.748;6.154;2022-10-03T06:11:54;20.60;;;11.47;;
3341;SDS011;1684;50.748;6.154;2022-10-03T06:14:29;20.07;;;12.40;;
3341;SDS011;1684;50.748;6.154;2022-10-03T06:17:05;26.53;;;12.57;;
3341;SDS011;1684;50.748;6.154;2022-10-03T06:19:42;27.37;;;13.20;;
3341;SDS011;1684;50.748;6.154;2022-10-03T06:22:24;21.93;;;11.73;;
3341;SDS011;1684;50.748;6.154;2022-10-03T06:25:03;24.80;;;10.50;;
3341;SDS011;1684;50.748;6.154;2022-10-03T06:30:19;20.03;;;10.13;;
3341;SDS011;1684;50.748;6.154;2022-10-03T06:33:02;29.90;;;14.10;;
3341;SDS011;1684;50.748;6.154;2022-10-03T06:35:53;24.23;;;12.20;;
3341;SDS011;1684;50.748;6.154;2022-10-03T06:38:38;17.93;;;10.17;;
3341;SDS011;1684;50.748;6.154;2022-10-03T06:44:13;20.00;;;12.27;;
3341;SDS011;1684;50.748;6.154;2022-10-03T06:46:59;23.93;;;11.67;;
3341;SDS011;1684;50.748;6.154;2022-10-03T06:49:33;15.53;;;10.67;;
3341;SDS011;1684;50.748;6.154;2022-10-03T06:57:50;21.77;;;10.90;;
3341;SDS011;1684;50.748;6.154;2022-10-03T07:00:22;26.63;;;10.27;;
3341;SDS011;1684;50.748;6.154;2022-10-03T07:08:42;26.00;;;11.37;;
3341;SDS011;1684;50.748;6.154;2022-10-03T07:14:26;23.53;;;10.60;;
3341;SDS011;1684;50.748;6.154;2022-10-03T07:17:05;20.40;;;10.43;;
3341;SDS011;1684;50.748;6.154;2022-10-03T07:19:54;24.40;;;9.53;;
3341;SDS011;1684;50.748;6.154;2022-10-03T07:22:36;19.20;;;12.37;;
3341;SDS011;1684;50.748;6.154;2022-10-03T07:25:21;20.67;;;9.37;;
3341;SDS011;1684;50.748;6.154;2022-10-03T07:27:55;22.00;;;9.40;;
3341;SDS011;1684;50.748;6.154;2022-10-03T07:30:25;18.97;;;8.93;;
3341;SDS011;1684;50.748;6.154;2022-10-03T07:35:44;19.40;;;9.67;;
3341;SDS011;1684;50.748;6.154;2022-10-03T07:38:48;23.43;;;10.67;;
3341;SDS011;1684;50.748;6.154;2022-10-03T07:44:13;19.80;;;9.83;;
3341;SDS011;1684;50.748;6.154;2022-10-03T07:49:47;22.10;;;11.77;;
3341;SDS011;1684;50.748;6.154;2022-10-03T07:52:35;19.73;;;10.87;;
3341;SDS011;1684;50.748;6.154;2022-10-03T07:55:15;21.00;;;11.47;;
3341;SDS011;1684;50.748;6.154;2022-10-03T07:57:52;27.90;;;13.40;;
3341;SDS011;1684;50.748;6.154;2022-10-03T08:00:26;23.93;;;14.23;;
3341;SDS011;1684;50.748;6.154;2022-10-03T08:03:02;27.50;;;12.90;;
3341;SDS011;1684;50.748;6.154;2022-10-03T08:05:40;28.50;;;14.30;;
3341;SDS011;1684;50.748;6.154;2022-10-03T08:08:21;23.93;;;13.43;;
3341;SDS011;1684;50.748;6.154;2022-10-03T08:11:05;28.23;;;14.07;;
3341;SDS011;1684;50.748;6.154;2022-10-03T08:13:44;28.87;;;13.03;;
3341;SDS011;1684;50.748;6.154;2022-10-03T08:16:20;37.90;;;17.03;;
3341;SDS011;1684;50.748;6.154;2022-10-03T08:21:50;37.90;;;17.57;;
3341;SDS011;1684;50.748;6.154;2022-10-03T08:24:25;36.00;;;17.67;;
3341;SDS011;1684;50.748;6.154;2022-10-03T08:27:02;40.13;;;20.17;;
3341;SDS011;1684;50.748;6.154;2022-10-03T08:38:00;38.90;;;20.43;;
3341;SDS011;1684;50.748;6.154;2022-10-03T08:40:54;37.30;;;15.93;;
3341;SDS011;1684;50.748;6.154;2022-10-03T08:43:35;31.23;;;13.87;;
3341;SDS011;1684;50.748;6.154;2022-10-03T08:46:13;33.47;;;17.93;;
3341;SDS011;1684;50.748;6.154;2022-10-03T08:57:27;31.90;;;17.50;;
3341;SDS011;1684;50.748;6.154;2022-10-03T09:02:52;38.60;;;17.30;;
3341;SDS011;1684;50.748;6.154;2022-10-03T09:11:29;50.20;;;22.50;;
3341;SDS011;1684;50.748;6.154;2022-10-03T09:19:40;35.70;;;16.13;;
3341;SDS011;1684;50.748;6.154;2022-10-03T09:25:10;24.37;;;12.17;;
3341;SDS011;1684;50.748;6.154;2022-10-03T09:27:42;34.73;;;15.87;;
3341;SDS011;1684;50.748;6.154;2022-10-03T09:30:19;49.83;;;15.10;;
3341;SDS011;1684;50.748;6.154;2022-10-03T09:35:50;29.60;;;14.37;;
3341;SDS011;1684;50.748;6.154;2022-10-03T09:38:30;19.60;;;10.50;;
3341;SDS011;1684;50.748;6.154;2022-10-03T09:46:47;22.13;;;8.47;;
3341;SDS011;1684;50.748;6.154;2022-10-03T09:52:30;19.43;;;8.10;;
3341;SDS011;1684;50.748;6.154;2022-10-03T09:55:06;18.47;;;4.40;;
3341;SDS011;1684;50.748;6.154;2022-10-03T10:00:23;12.60;;;3.80;;
3341;SDS011;1684;50.748;6.154;2022-10-03T10:05:51;11.47;;;4.60;;
3341;SDS011;1684;50.748;6.154;2022-10-03T10:11:20;9.87;;;4.50;;
3341;SDS011;1684;50.748;6.154;2022-10-03T10:19:42;10.90;;;5.27;;
3341;SDS011;1684;50.748;6.154;2022-10-03T10:22:20;9.00;;;4.77;;
3341;SDS011;1684;50.748;6.154;2022-10-03T10:25:08;9.00;;;3.20;;
3341;SDS011;1684;50.748;6.154;2022-10-03T10:27:52;12.43;;;4.10;;
3341;SDS011;1684;50.748;6.154;2022-10-03T10:30:45;12.57;;;5.50;;
3341;SDS011;1684;50.748;6.154;2022-10-03T10:36:22;12.50;;;2.87;;
3341;SDS011;1684;50.748;6.154;2022-10-03T10:39:18;5.30;;;2.40;;
3341;SDS011;1684;50.748;6.154;2022-10-03T10:42:04;8.13;;;3.77;;
3341;SDS011;1684;50.748;6.154;2022-10-03T10:47:41;14.00;;;4.93;;
3341;SDS011;1684;50.748;6.154;2022-10-03T10:58:56;11.80;;;3.00;;
3341;SDS011;1684;50.748;6.154;2022-10-03T11:07:19;5.63;;;2.80;;
3341;SDS011;1684;50.748;6.154;2022-10-03T11:10:16;9.67;;;2.63;;
3341;SDS011;1684;50.748;6.154;2022-10-03T11:15:43;6.37;;;3.00;;
3341;SDS011;1684;50.748;6.154;2022-10-03T11:18:29;3.60;;;1.80;;
3341;SDS011;1684;50.748;6.154;2022-10-03T11:21:16;4.33;;;2.10;;
3341;SDS011;1684;50.748;6.154;2022-10-03T11:26:58;4.17;;;2.53;;
3341;SDS011;1684;50.748;6.154;2022-10-03T11:29:49;6.90;;;2.53;;
3341;SDS011;1684;50.748;6.154;2022-10-03T11:37:54;3.57;;;2.07;;
3341;SDS011;1684;50.748;6.154;2022-10-03T11:40:27;3.73;;;1.90;;
3341;SDS011;1684;50.748;6.154;2022-10-03T11:43:02;4.73;;;1.63;;
3341;SDS011;1684;50.748;6.154;2022-10-03T11:45:34;4.43;;;2.00;;
3341;SDS011;1684;50.748;6.154;2022-10-03T11:48:07;4.00;;;2.20;;
3341;SDS011;1684;50.748;6.154;2022-10-03T11:50:44;7.87;;;2.50;;
3341;SDS011;1684;50.748;6.154;2022-10-03T11:53:18;6.00;;;2.03;;
3341;SDS011;1684;50.748;6.154;2022-10-03T11:55:49;6.30;;;1.87;;
3341;SDS011;1684;50.748;6.154;2022-10-03T11:58:29;3.70;;;1.80;;
3341;SDS011;1684;50.748;6.154;2022-10-03T12:01:04;14.73;;;2.97;;
3341;SDS011;1684;50.748;6.154;2022-10-03T12:03:38;7.03;;;2.00;;
3341;SDS011;1684;50.748;6.154;2022-10-03T12:06:10;5.07;;;2.10;;
3341;SDS011;1684;50.748;6.154;2022-10-03T12:09:02;6.87;;;1.77;;
3341;SDS011;1684;50.748;6.154;2022-10-03T12:11:34;4.90;;;2.00;;
3341;SDS011;1684;50.748;6.154;2022-10-03T12:14:18;5.40;;;1.83;;
3341;SDS011;1684;50.748;6.154;2022-10-03T12:16:53;5.23;;;2.00;;
3341;SDS011;1684;50.748;6.154;2022-10-03T12:19:26;6.77;;;1.90;;
3341;SDS011;1684;50.748;6.154;2022-10-03T12:21:56;6.43;;;2.40;;
3341;SDS011;1684;50.748;6.154;2022-10-03T12:24:27;5.20;;;2.10;;
3341;SDS011;1684;50.748;6.154;2022-10-03T12:26:58;2.97;;;1.70;;
3341;SDS011;1684;50.748;6.154;2022-10-03T12:29:30;3.40;;;1.67;;
3341;SDS011;1684;50.748;6.154;2022-10-03T12:32:05;5.07;;;2.00;;
3341;SDS011;1684;50.748;6.154;2022-10-03T12:34:38;4.20;;;1.93;;
3341;SDS011;1684;50.748;6.154;2022-10-03T12:37:17;4.40;;;2.13;;
3341;SDS011;1684;50.748;6.154;2022-10-03T12:39:51;6.07;;;1.60;;
3341;SDS011;1684;50.748;6.154;2022-10-03T12:42:24;4.57;;;2.07;;
3341;SDS011;1684;50.748;6.154;2022-10-03T12:44:56;11.67;;;1.70;;
3341;SDS011;1684;50.748;6.154;2022-10-03T12:47:27;7.77;;;1.70;;
3341;SDS011;1684;50.748;6.154;2022-10-03T12:50:21;7.80;;;1.83;;
3341;SDS011;1684;50.748;6.154;2022-10-03T12:53:10;7.93;;;1.80;;
3341;SDS011;1684;50.748;6.154;2022-10-03T12:55:46;3.90;;;1.83;;
3341;SDS011;1684;50.748;6.154;2022-10-03T12:58:17;6.73;;;1.80;;
3341;SDS011;1684;50.748;6.154;2022-10-03T13:00:53;4.13;;;1.90;;
3341;SDS011;1684;50.748;6.154;2022-10-03T13:03:26;3.60;;;1.90;;
3341;SDS011;1684;50.748;6.154;2022-10-03T13:06:07;3.30;;;1.50;;
3341;SDS011;1684;50.748;6.154;2022-10-03T13:08:42;4.77;;;2.00;;
3341;SDS011;1684;50.748;6.154;2022-10-03T13:11:20;5.20;;;1.47;;
3341;SDS011;1684;50.748;6.154;2022-10-03T13:13:55;4.50;;;1.73;;
3341;SDS011;1684;50.748;6.154;2022-10-03T13:16:27;2.20;;;1.30;;
3341;SDS011;1684;50.748;6.154;2022-10-03T13:18:57;4.37;;;1.50;;
3341;SDS011;1684;50.748;6.154;2022-10-03T13:21:38;2.73;;;1.40;;
3341;SDS011;1684;50.748;6.154;2022-10-03T13:24:14;2.97;;;1.90;;
3341;SDS011;1684;50.748;6.154;2022-10-03T13:26:49;5.20;;;1.67;;
3341;SDS011;1684;50.748;6.154;2022-10-03T13:29:26;7.47;;;1.90;;
3341;SDS011;1684;50.748;6.154;2022-10-03T13:32:07;6.40;;;1.60;;
3341;SDS011;1684;50.748;6.154;2022-10-03T13:34:44;4.83;;;1.90;;
3341;SDS011;1684;50.748;6.154;2022-10-03T13:37:13;6.90;;;2.00;;
3341;SDS011;1684;50.748;6.154;2022-10-03T13:39:45;5.97;;;1.90;;
3341;SDS011;1684;50.748;6.154;2022-10-03T13:42:16;7.97;;;1.90;;
3341;SDS011;1684;50.748;6.154;2022-10-03T13:44:47;4.30;;;1.40;;
3341;SDS011;1684;50.748;6.154;2022-10-03T13:47:24;4.40;;;1.87;;
3341;SDS011;1684;50.748;6.154;2022-10-03T13:49:54;2.97;;;1.50;;
3341;SDS011;1684;50.748;6.154;2022-10-03T13:52:26;3.77;;;1.40;;
3341;SDS011;1684;50.748;6.154;2022-10-03T13:55:04;11.27;;;1.63;;
3341;SDS011;1684;50.748;6.154;2022-10-03T13:57:41;3.40;;;1.97;;
3341;SDS011;1684;50.748;6.154;2022-10-03T14:00:11;7.83;;;2.27;;
3341;SDS011;1684;50.748;6.154;2022-10-03T14:02:42;3.27;;;1.30;;
3341;SDS011;1684;50.748;6.154;2022-10-03T14:05:25;5.30;;;1.33;;
3341;SDS011;1684;50.748;6.154;2022-10-03T14:07:59;6.33;;;1.87;;
3341;SDS011;1684;50.748;6.154;2022-10-03T14:10:38;7.63;;;1.93;;
3341;SDS011;1684;50.748;6.154;2022-10-03T14:13:11;4.40;;;1.57;;
3341;SDS011;1684;50.748;6.154;2022-10-03T14:15:45;10.37;;;2.83;;
3341;SDS011;1684;50.748;6.154;2022-10-03T14:18:18;6.13;;;1.60;;
3341;SDS011;1684;50.748;6.154;2022-10-03T14:21:10;5.17;;;1.67;;
3341;SDS011;1684;50.748;6.154;2022-10-03T14:23:46;5.23;;;1.50;;
3341;SDS011;1684;50.748;6.154;2022-10-03T14:26:17;5.50;;;1.87;;
3341;SDS011;1684;50.748;6.154;2022-10-03T14:28:48;7.63;;;2.03;;
3341;SDS011;1684;50.748;6.154;2022-10-03T14:31:19;6.10;;;1.90;;
3341;SDS011;1684;50.748;6.154;2022-10-03T14:33:51;8.23;;;2.00;;
3341;SDS011;1684;50.748;6.154;2022-10-03T14:36:28;3.97;;;1.53;;
3341;SDS011;1684;50.748;6.154;2022-10-03T14:39:13;3.97;;;1.47;;
3341;SDS011;1684;50.748;6.154;2022-10-03T14:41:48;4.20;;;1.77;;
3341;SDS011;1684;50.748;6.154;2022-10-03T14:44:25;6.03;;;1.60;;
3341;SDS011;1684;50.748;6.154;2022-10-03T14:46:56;4.07;;;1.50;;
3341;SDS011;1684;50.748;6.154;2022-10-03T14:49:26;5.20;;;1.80;;
3341;SDS011;1684;50.748;6.154;2022-10-03T14:52:20;6.00;;;2.27;;
3341;SDS011;1684;50.748;6.154;2022-10-03T14:54:52;3.60;;;1.70;;
3341;SDS011;1684;50.748;6.154;2022-10-03T14:57:25;5.13;;;1.97;;
3341;SDS011;1684;50.748;6.154;2022-10-03T15:00:20;5.13;;;1.73;;
3341;SDS011;1684;50.748;6.154;2022-10-03T15:02:49;4.03;;;1.60;;
3341;SDS011;1684;50.748;6.154;2022-10-03T15:05:20;6.93;;;1.80;;
3341;SDS011;1684;50.748;6.154;2022-10-03T15:07:49;4.27;;;1.43;;
3341;SDS011;1684;50.748;6.154;2022-10-03T15:10:19;3.87;;;1.50;;
3341;SDS011;1684;50.748;6.154;2022-10-03T15:12:50;3.60;;;1.90;;
3341;SDS011;1684;50.748;6.154;2022-10-03T15:15:22;3.60;;;1.67;;
3341;SDS011;1684;50.748;6.154;2022-10-03T15:17:51;7.33;;;2.40;;
3341;SDS011;1684;50.748;6.154;2022-10-03T15:20:22;3.93;;;1.57;;
3341;SDS011;1684;50.748;6.154;2022-10-03T15:22:52;3.30;;;1.40;;
3341;SDS011;1684;50.748;6.154;2022-10-03T15:25:24;4.43;;;1.70;;
3341;SDS011;1684;50.748;6.154;2022-10-03T15:27:54;3.63;;;1.30;;
3341;SDS011;1684;50.748;6.154;2022-10-03T15:30:25;4.10;;;1.60;;
3341;SDS011;1684;50.748;6.154;2022-10-03T15:33:02;3.10;;;1.33;;
3341;SDS011;1684;50.748;6.154;2022-10-03T15:35:32;3.90;;;1.67;;
3341;SDS011;1684;50.748;6.154;2022-10-03T15:38:06;5.43;;;1.97;;
3341;SDS011;1684;50.748;6.154;2022-10-03T15:40:36;6.03;;;1.80;;
3341;SDS011;1684;50.748;6.154;2022-10-03T15:43:06;6.30;;;1.93;;
3341;SDS011;1684;50.748;6.154;2022-10-03T15:45:36;4.73;;;1.40;;
3341;SDS011;1684;50.748;6.154;2022-10-03T15:48:18;4.53;;;1.70;;
3341;SDS011;1684;50.748;6.154;2022-10-03T15:50:48;2.10;;;0.90;;
3341;SDS011;1684;50.748;6.154;2022-10-03T15:53:19;7.23;;;2.10;;
3341;SDS011;1684;50.748;6.154;2022-10-03T15:56:07;6.20;;;1.80;;
3341;SDS011;1684;50.748;6.154;2022-10-03T15:58:37;5.90;;;1.97;;
3341;SDS011;1684;50.748;6.154;2022-10-03T16:01:08;6.87;;;2.27;;
3341;SDS011;1684;50.748;6.154;2022-10-03T16:03:40;8.87;;;2.57;;
3341;SDS011;1684;50.748;6.154;2022-10-03T16:06:10;5.73;;;2.20;;
3341;SDS011;1684;50.748;6.154;2022-10-03T16:08:44;6.10;;;2.53;;
3341;SDS011;1684;50.748;6.154;2022-10-03T16:11:19;3.23;;;1.20;;
3341;SDS011;1684;50.748;6.154;2022-10-03T16:13:50;6.43;;;2.00;;
3341;SDS011;1684;50.748;6.154;2022-10-03T16:16:22;3.40;;;2.30;;
3341;SDS011;1684;50.748;6.154;2022-10-03T16:19:01;10.00;;;2.30;;
3341;SDS011;1684;50.748;6.154;2022-10-03T16:24:28;10.47;;;2.53;;
3341;SDS011;1684;50.748;6.154;2022-10-03T16:27:00;9.07;;;2.20;;
3341;SDS011;1684;50.748;6.154;2022-10-03T16:29:32;5.30;;;2.30;;
3341;SDS011;1684;50.748;6.154;2022-10-03T16:32:04;6.70;;;2.07;;
3341;SDS011;1684;50.748;6.154;2022-10-03T16:34:35;7.13;;;2.00;;
3341;SDS011;1684;50.748;6.154;2022-10-03T16:37:05;5.13;;;2.20;;
3341;SDS011;1684;50.748;6.154;2022-10-03T16:39:42;7.63;;;2.40;;
3341;SDS011;1684;50.748;6.154;2022-10-03T16:42:17;6.00;;;2.30;;
3341;SDS011;1684;50.748;6.154;2022-10-03T16:44:47;2.80;;;1.40;;
3341;SDS011;1684;50.748;6.154;2022-10-03T16:47:18;11.80;;;2.70;;
3341;SDS011;1684;50.748;6.154;2022-10-03T16:49:55;6.33;;;2.30;;
3341;SDS011;1684;50.748;6.154;2022-10-03T16:52:42;8.00;;;3.30;;
3341;SDS011;1684;50.748;6.154;2022-10-03T16:55:13;6.83;;;2.57;;
3341;SDS011;1684;50.748;6.154;2022-10-03T16:57:43;5.70;;;2.90;;
3341;SDS011;1684;50.748;6.154;2022-10-03T17:00:15;5.30;;;2.77;;
3341;SDS011;1684;50.748;6.154;2022-10-03T17:02:45;5.20;;;2.17;;
3341;SDS011;1684;50.748;6.154;2022-10-03T17:05:14;4.80;;;2.27;;
3341;SDS011;1684;50.748;6.154;2022-10-03T17:07:43;7.20;;;2.20;;
3341;SDS011;1684;50.748;6.154;2022-10-03T17:10:32;8.70;;;3.73;;
3341;SDS011;1684;50.748;6.154;2022-10-03T17:13:04;10.37;;;4.17;;
3341;SDS011;1684;50.748;6.154;2022-10-03T17:15:40;8.17;;;4.20;;
3341;SDS011;1684;50.748;6.154;2022-10-03T17:18:17;6.70;;;3.00;;
3341;SDS011;1684;50.748;6.154;2022-10-03T17:20:51;5.57;;;2.90;;
3341;SDS011;1684;50.748;6.154;2022-10-03T17:23:26;8.30;;;3.03;;
3341;SDS011;1684;50.748;6.154;2022-10-03T17:25:57;4.30;;;3.07;;
3341;SDS011;1684;50.748;6.154;2022-10-03T17:28:29;4.90;;;2.90;;
3341;SDS011;1684;50.748;6.154;2022-10-03T17:31:02;6.87;;;3.10;;
3341;SDS011;1684;50.748;6.154;2022-10-03T17:33:34;11.97;;;4.13;;
3341;SDS011;1684;50.748;6.154;2022-10-03T17:36:13;9.60;;;4.13;;
3341;SDS011;1684;50.748;6.154;2022-10-03T17:38:46;9.93;;;4.10;;
3341;SDS011;1684;50.748;6.154;2022-10-03T17:41:20;7.73;;;3.40;;
3341;SDS011;1684;50.748;6.154;2022-10-03T17:43:58;11.57;;;3.70;;
3341;SDS011;1684;50.748;6.154;2022-10-03T17:46:34;11.10;;;5.47;;
3341;SDS011;1684;50.748;6.154;2022-10-03T17:49:06;11.07;;;4.60;;
3341;SDS011;1684;50.748;6.154;2022-10-03T17:51:43;10.47;;;4.37;;
3341;SDS011;1684;50.748;6.154;2022-10-03T17:54:13;6.00;;;3.37;;
3341;SDS011;1684;50.748;6.154;2022-10-03T17:56:44;9.73;;;4.80;;
3341;SDS011;1684;50.748;6.154;2022-10-03T17:59:18;8.23;;;3.73;;
3341;SDS011;1684;50.748;6.154;2022-10-03T18:01:49;6.40;;;4.50;;
3341;SDS011;1684;50.748;6.154;2022-10-03T18:04:25;10.40;;;5.20;;
3341;SDS011;1684;50.748;6.154;2022-10-03T18:06:55;6.30;;;4.73;;
3341;SDS011;1684;50.748;6.154;2022-10-03T18:09:27;8.40;;;5.73;;
3341;SDS011;1684;50.748;6.154;2022-10-03T18:15:03;10.93;;;4.77;;
3341;SDS011;1684;50.748;6.154;2022-10-03T18:17:47;10.90;;;4.40;;
3341;SDS011;1684;50.748;6.154;2022-10-03T18:20:21;7.70;;;4.97;;
3341;SDS011;1684;50.748;6.154;2022-10-03T18:22:57;9.70;;;4.37;;
3341;SDS011;1684;50.748;6.154;2022-10-03T18:25:27;11.83;;;5.30;;
3341;SDS011;1684;50.748;6.154;2022-10-03T18:28:36;8.70;;;5.20;;
3341;SDS011;1684;50.748;6.154;2022-10-03T18:31:12;11.33;;;5.27;;
3341;SDS011;1684;50.748;6.154;2022-10-03T18:33:43;10.60;;;5.40;;
3341;SDS011;1684;50.748;6.154;2022-10-03T18:36:17;10.10;;;4.97;;
3341;SDS011;1684;50.748;6.154;2022-10-03T18:38:46;6.80;;;4.87;;